Helene — V7VF9 — position and weather

sailwx.info

Track history (hours):
 
Tides and Currents Weather Stations Pressure Air Temp Water Temp Dewpoint Dewpoint Depression Visibility Wind Speed Wind Dir Waves Ship Positions

Helene

Last reported at 2014-Jul-19 04:32 UTC. Time now 2014-Jul-24 19:19 UTC.
Position N 25°33' W 079°39'.

Length 207 m; draft 9 m.

Type: Cargo ship. MMSI: 538090420.

Date/timePositionNaut miles runAvg speedWind from/ knotsBaromVisibWave heightAir tempDewpointWater temp
2014-Jul-19 04:32N 25°33' W 079°39'1717.4
2014-Jul-19 03:33N 25°50' W 079°37'1716.6
2014-Jul-19 02:33N 26°07' W 079°34'1616.2
2014-Jul-19 01:33N 26°23' W 079°31'1716.6
2014-Jul-19 00:32N 26°39' W 079°30'2016.8
2014-Jul-18 23:21N 26°59' W 079°26'1816.9
2014-Jul-18 22:19N 27°17' W 079°23'65618.4
2014-Jul-17 10:33N 37°30' W 074°47'4019.3
2014-Jul-17 08:29N 38°10' W 074°43'  
2014-Jul-13 22:09N 39°03' W 075°10'1017.8
2014-Jul-13 21:34N 38°54' W 075°05'1313.4
2014-Jul-13 20:33N 38°43' W 074°55'1817.8
2014-Jul-13 19:33N 38°29' W 074°41'10 9.8
2014-Jul-13 18:33N 38°19' W 074°42'1716.8
2014-Jul-13 17:33N 38°02' W 074°44'1918.9
2014-Jul-13 16:33N 37°43' W 074°46'1918.6
2014-Jul-13 15:33N 37°25' W 074°48'1918.6
2014-Jul-13 14:33N 37°06' W 074°50'1918.7
2014-Jul-13 13:33N 36°48' W 074°52'1918.9
2014-Jul-13 12:33N 36°29' W 074°54'2120.6
2014-Jul-13 11:33N 36°08' W 074°57'1918.6
2014-Jul-13 10:33N 35°49' W 074°58'2218.4
2014-Jul-13 09:20N 35°27' W 074°58'1721.4
2014-Jul-13 08:33N 35°11' W 075°02'56020.7
2014-Jul-12 05:33N 26°46' W 079°44'2221.7
2014-Jul-12 04:33N 26°24' W 079°46'2121.4
2014-Jul-12 03:33N 26°03' W 079°49'2221.6
2014-Jul-12 02:33N 25°42' W 079°51'  
Track history (hours):
 
Tides and Currents Weather Stations Pressure Air Temp Water Temp Dewpoint Dewpoint Depression Visibility Wind Speed Wind Dir Waves Ship Positions

Helene

Last reported at 2014-Jul-19 04:32 UTC. Time now 2014-Jul-24 19:19 UTC.
Position N 25°33' W 079°39'.

Length 207 m; draft 9 m.

Type: Cargo ship. MMSI: 538090420.

Date/timePositionNaut miles runAvg speedWind from/ knotsBaromVisibWave heightAir tempDewpointWater temp
2014-Jul-19 04:32N 25°33' W 079°39'1717.4
2014-Jul-19 03:33N 25°50' W 079°37'1716.6
2014-Jul-19 02:33N 26°07' W 079°34'1616.2
2014-Jul-19 01:33N 26°23' W 079°31'1716.6
2014-Jul-19 00:32N 26°39' W 079°30'2016.8
2014-Jul-18 23:21N 26°59' W 079°26'1816.9
2014-Jul-18 22:19N 27°17' W 079°23'65618.4
2014-Jul-17 10:33N 37°30' W 074°47'4019.3
2014-Jul-17 08:29N 38°10' W 074°43'  
2014-Jul-13 22:09N 39°03' W 075°10'1017.8
2014-Jul-13 21:34N 38°54' W 075°05'1313.4
2014-Jul-13 20:33N 38°43' W 074°55'1817.8
2014-Jul-13 19:33N 38°29' W 074°41'10 9.8
2014-Jul-13 18:33N 38°19' W 074°42'1716.8
2014-Jul-13 17:33N 38°02' W 074°44'1918.9
2014-Jul-13 16:33N 37°43' W 074°46'1918.6
2014-Jul-13 15:33N 37°25' W 074°48'1918.6
2014-Jul-13 14:33N 37°06' W 074°50'1918.7
2014-Jul-13 13:33N 36°48' W 074°52'1918.9
2014-Jul-13 12:33N 36°29' W 074°54'2120.6
2014-Jul-13 11:33N 36°08' W 074°57'1918.6
2014-Jul-13 10:33N 35°49' W 074°58'2218.4
2014-Jul-13 09:20N 35°27' W 074°58'1721.4
2014-Jul-13 08:33N 35°11' W 075°02'56020.7
2014-Jul-12 05:33N 26°46' W 079°44'2221.7
2014-Jul-12 04:33N 26°24' W 079°46'2121.4
2014-Jul-12 03:33N 26°03' W 079°49'2221.6
2014-Jul-12 02:33N 25°42' W 079°51'  

Dump ship's entire track history